createdAt,value
2017-11-17T00:01:06.421Z,23.36
2017-11-17T00:02:19.441Z,23.32
2017-11-17T00:03:31.559Z,23.31
2017-11-17T00:04:44.078Z,23.33
2017-11-17T00:05:57.100Z,23.33
2017-11-17T00:07:10.262Z,23.31
2017-11-17T00:08:23.301Z,23.31
2017-11-17T00:09:36.617Z,23.32
2017-11-17T00:10:49.161Z,23.32
2017-11-17T00:12:02.229Z,23.28
2017-11-17T00:13:15.244Z,23.32
2017-11-17T00:14:27.738Z,23.31
2017-11-17T00:15:40.816Z,23.32
2017-11-17T00:16:53.865Z,23.36
2017-11-17T00:18:06.424Z,23.39
2017-11-17T00:19:19.502Z,23.28
2017-11-17T00:20:32.534Z,23.32
2017-11-17T00:21:45.625Z,23.27
2017-11-17T00:22:57.851Z,23.32
2017-11-17T00:24:10.443Z,23.27
2017-11-17T00:25:22.977Z,23.36
2017-11-17T00:26:36.080Z,23.31
2017-11-17T00:27:49.108Z,23.28
2017-11-17T00:29:02.303Z,23.4
2017-11-17T00:30:15.354Z,23.42
2017-11-17T00:31:28.231Z,23.48
2017-11-17T00:32:41.242Z,23.5
2017-11-17T00:33:54.350Z,23.48
2017-11-17T00:35:07.618Z,23.54
2017-11-17T00:36:20.587Z,23.58
2017-11-17T00:37:33.147Z,23.51
2017-11-17T00:38:46.108Z,23.51
2017-11-17T00:39:59.111Z,23.42
2017-11-17T00:41:11.213Z,23.36
2017-11-17T00:42:24.238Z,23.47
2017-11-17T00:43:37.230Z,23.39
2017-11-17T00:44:50.237Z,23.36
2017-11-17T00:46:03.260Z,23.33
2017-11-17T00:47:15.819Z,23.36
2017-11-17T00:48:28.285Z,23.36
2017-11-17T00:49:40.838Z,23.25
2017-11-17T00:50:53.364Z,23.05
2017-11-17T00:52:05.889Z,22.94
2017-11-17T00:53:18.410Z,22.95
2017-11-17T00:54:30.972Z,22.97
2017-11-17T00:55:43.976Z,23.01
2017-11-17T00:56:56.997Z,22.94
2017-11-17T00:58:09.519Z,22.95
2017-11-17T00:59:22.496Z,23
2017-11-17T01:00:35.031Z,23.01
2017-11-17T01:01:47.640Z,23
2017-11-17T01:03:00.650Z,22.82
2017-11-17T01:04:13.181Z,23.02
2017-11-17T01:05:26.150Z,22.91
2017-11-17T01:06:39.588Z,22.8
2017-11-17T01:07:52.079Z,22.85
2017-11-17T01:09:05.070Z,22.62
2017-11-17T01:10:18.081Z,22.46
2017-11-17T01:11:29.933Z,22.49
2017-11-17T01:12:42.524Z,22.25
2017-11-17T01:13:55.051Z,22.3
2017-11-17T01:15:07.161Z,22.46
2017-11-17T01:16:20.176Z,22.57
2017-11-17T01:17:32.746Z,22.73
2017-11-17T01:18:45.761Z,22.77
2017-11-17T01:19:58.829Z,22.82
2017-11-17T01:21:12.050Z,22.72
2017-11-17T01:22:24.565Z,22.72
2017-11-17T01:23:37.099Z,22.77
2017-11-17T01:24:49.657Z,22.79
2017-11-17T01:26:02.651Z,22.67
2017-11-17T01:27:14.724Z,22.52
2017-11-17T01:28:27.769Z,22.46
2017-11-17T01:29:40.974Z,22.49
2017-11-17T01:30:53.979Z,22.47
2017-11-17T01:32:06.494Z,22.54
2017-11-17T01:33:19.507Z,22.52
2017-11-17T01:34:32.064Z,22.49
2017-11-17T01:35:45.127Z,22.55
2017-11-17T01:36:58.189Z,22.51
2017-11-17T01:38:11.225Z,22.58
2017-11-17T01:39:24.239Z,22.65
2017-11-17T01:40:37.222Z,22.76
2017-11-17T01:41:49.716Z,22.88
2017-11-17T01:43:02.743Z,22.85
2017-11-17T01:44:15.770Z,22.82
2017-11-17T01:45:28.744Z,22.9
2017-11-17T01:46:41.780Z,22.91
2017-11-17T01:47:54.800Z,22.88
2017-11-17T01:49:07.348Z,22.85
2017-11-17T01:50:19.416Z,22.83
2017-11-17T01:51:32.475Z,22.83
2017-11-17T01:52:45.496Z,22.75
2017-11-17T01:53:58.490Z,22.82
2017-11-17T01:55:11.505Z,22.85
2017-11-17T01:56:24.483Z,22.86
2017-11-17T01:57:37.535Z,22.82
2017-11-17T01:58:50.546Z,23.01
2017-11-17T02:00:03.088Z,22.88
2017-11-17T02:01:16.128Z,22.94
2017-11-17T02:02:29.138Z,22.85
2017-11-17T02:03:42.116Z,23
2017-11-17T02:04:54.650Z,22.94
2017-11-17T02:06:07.181Z,22.9
2017-11-17T02:07:20.209Z,23.04
2017-11-17T02:08:33.241Z,22.97
2017-11-17T02:09:46.261Z,23.05
2017-11-17T02:10:59.213Z,22.98
2017-11-17T02:12:11.262Z,23.01
2017-11-17T02:13:24.278Z,22.86
2017-11-17T02:14:37.282Z,22.88
2017-11-17T02:15:49.805Z,22.85
2017-11-17T02:17:02.320Z,22.83
2017-11-17T02:18:15.338Z,22.77
2017-11-17T02:19:28.358Z,22.85
2017-11-17T02:20:40.890Z,22.82
2017-11-17T02:21:54.133Z,22.75
2017-11-17T02:23:07.154Z,22.8
2017-11-17T02:24:20.098Z,22.88
2017-11-17T02:25:33.109Z,22.77
2017-11-17T02:26:46.157Z,22.95
2017-11-17T02:27:58.715Z,23
2017-11-17T02:29:11.303Z,23.05
2017-11-17T02:30:24.340Z,23.07
2017-11-17T02:31:37.331Z,23.07
2017-11-17T02:32:50.406Z,22.97
2017-11-17T02:34:03.419Z,22.98
2017-11-17T02:35:16.007Z,23.01
2017-11-17T02:36:29.043Z,23.01
2017-11-17T02:37:42.110Z,22.98
2017-11-17T02:38:54.189Z,22.98
2017-11-17T02:40:07.228Z,23.01
2017-11-17T02:41:20.233Z,22.9
2017-11-17T02:42:33.256Z,22.83
2017-11-17T02:43:46.280Z,22.83
2017-11-17T02:44:59.283Z,22.83
2017-11-17T02:46:11.815Z,22.8
2017-11-17T02:47:24.399Z,22.76
2017-11-17T02:48:37.446Z,22.73
2017-11-17T02:49:50.460Z,22.77
2017-11-17T02:51:03.474Z,22.82
2017-11-17T02:52:16.480Z,22.82
2017-11-17T02:53:29.024Z,22.83
2017-11-17T02:54:41.102Z,22.85
2017-11-17T02:55:54.122Z,22.82
2017-11-17T02:57:06.671Z,22.8
2017-11-17T02:58:19.199Z,22.85
2017-11-17T02:59:31.734Z,22.86
2017-11-17T03:00:44.276Z,22.79
2017-11-17T03:01:57.263Z,22.79
2017-11-17T03:03:10.296Z,22.76
2017-11-17T03:04:23.526Z,22.67
2017-11-17T03:05:36.502Z,22.7
2017-11-17T03:06:49.510Z,22.77
2017-11-17T03:08:02.525Z,22.75
2017-11-17T03:09:15.516Z,22.58
2017-11-17T03:10:28.520Z,22.6
2017-11-17T03:11:41.485Z,22.67
2017-11-17T03:12:54.495Z,22.64
2017-11-17T03:14:07.051Z,22.67
2017-11-17T03:15:20.044Z,22.73
2017-11-17T03:16:33.029Z,22.68
2017-11-17T03:17:45.700Z,22.8
2017-11-17T03:18:58.714Z,22.86
2017-11-17T03:20:11.680Z,22.82
2017-11-17T03:21:24.702Z,22.76
2017-11-17T03:22:37.717Z,22.8
2017-11-17T03:23:50.725Z,22.79
2017-11-17T03:25:03.724Z,22.8
2017-11-17T03:26:16.729Z,22.67
2017-11-17T03:27:28.809Z,22.73
2017-11-17T03:28:41.344Z,22.64
2017-11-17T03:29:54.315Z,22.62
2017-11-17T03:31:06.908Z,22.65
2017-11-17T03:32:19.430Z,22.68
2017-11-17T03:33:32.405Z,22.65
2017-11-17T03:34:44.935Z,22.52
2017-11-17T03:35:57.944Z,22.52
2017-11-17T03:37:10.942Z,22.51
2017-11-17T03:38:23.920Z,22.58
2017-11-17T03:39:36.465Z,22.52
2017-11-17T03:40:49.487Z,22.49
2017-11-17T03:42:02.478Z,22.52
2017-11-17T03:43:14.566Z,22.52
2017-11-17T03:44:27.715Z,22.54
2017-11-17T03:45:40.726Z,22.51
2017-11-17T03:46:53.284Z,22.58
2017-11-17T03:48:06.351Z,22.6
2017-11-17T03:49:18.401Z,22.7
2017-11-17T03:50:30.971Z,22.72
2017-11-17T03:51:43.515Z,22.72
2017-11-17T03:52:56.574Z,22.72
2017-11-17T03:54:09.555Z,22.72
2017-11-17T03:55:22.611Z,22.77
2017-11-17T03:56:35.630Z,22.79
2017-11-17T03:57:48.140Z,22.68
2017-11-17T03:59:01.133Z,22.58
2017-11-17T04:00:14.140Z,22.68
2017-11-17T04:01:27.214Z,22.58
2017-11-17T04:02:40.257Z,22.55
2017-11-17T04:03:53.263Z,22.51
2017-11-17T04:05:05.833Z,22.49
2017-11-17T04:06:18.866Z,22.57
2017-11-17T04:07:31.893Z,22.54
2017-11-17T04:08:45.081Z,22.47
2017-11-17T04:09:58.094Z,22.52
2017-11-17T04:11:10.588Z,22.47
2017-11-17T04:12:23.599Z,22.46
2017-11-17T04:13:36.135Z,22.49
2017-11-17T04:14:49.159Z,22.52
2017-11-17T04:16:02.147Z,22.52
2017-11-17T04:17:15.140Z,22.6
2017-11-17T04:18:28.152Z,22.65
2017-11-17T04:19:40.644Z,22.64
2017-11-17T04:20:53.635Z,22.61
2017-11-17T04:22:05.727Z,22.55
2017-11-17T04:23:18.733Z,22.51
2017-11-17T04:24:31.733Z,22.58
2017-11-17T04:25:44.749Z,22.46
2017-11-17T04:26:57.736Z,22.57
2017-11-17T04:28:10.283Z,22.57
2017-11-17T04:29:23.294Z,22.46
2017-11-17T04:30:35.808Z,22.43
2017-11-17T04:31:48.353Z,22.42
2017-11-17T04:33:01.321Z,22.37
2017-11-17T04:34:14.328Z,22.24
2017-11-17T04:35:27.322Z,22.18
2017-11-17T04:36:40.356Z,22.17
2017-11-17T04:37:53.359Z,22.12
2017-11-17T04:39:06.343Z,21.98
2017-11-17T04:40:18.845Z,21.98
2017-11-17T04:41:31.843Z,22
2017-11-17T04:42:44.378Z,21.91
2017-11-17T04:43:57.392Z,21.9
2017-11-17T04:45:10.396Z,21.92
2017-11-17T04:46:22.915Z,21.84
2017-11-17T04:47:35.919Z,21.8
2017-11-17T04:48:48.879Z,21.84
2017-11-17T04:50:01.866Z,21.9
2017-11-17T04:51:14.913Z,21.88
2017-11-17T04:52:27.897Z,21.9
2017-11-17T04:53:40.925Z,21.86
2017-11-17T04:54:53.974Z,21.83
2017-11-17T04:56:06.934Z,21.84
2017-11-17T04:57:18.993Z,21.77
2017-11-17T04:58:32.026Z,21.86
2017-11-17T04:59:44.535Z,21.86
2017-11-17T05:00:59.157Z,21.77
2017-11-17T05:02:12.641Z,21.71
2017-11-17T05:03:26.454Z,21.75
2017-11-17T05:04:39.443Z,21.71
2017-11-17T05:05:52.427Z,21.74
2017-11-17T05:07:04.534Z,21.74
2017-11-17T05:08:17.527Z,21.79
2017-11-17T05:09:30.954Z,21.72
2017-11-17T05:10:44.463Z,21.77
2017-11-17T05:11:57.857Z,21.8
2017-11-17T05:13:12.367Z,21.91
2017-11-17T05:14:28.409Z,21.83
2017-11-17T05:15:42.055Z,21.88
2017-11-17T05:16:54.568Z,21.9
2017-11-17T05:18:07.579Z,21.83
2017-11-17T05:19:20.553Z,21.74
2017-11-17T05:20:33.108Z,21.77
2017-11-17T05:21:45.786Z,21.69
2017-11-17T05:22:58.464Z,21.67
2017-11-17T05:24:10.985Z,21.62
2017-11-17T05:25:23.665Z,21.54
2017-11-17T05:26:36.213Z,21.58
2017-11-17T05:27:48.465Z,21.61
2017-11-17T05:29:01.040Z,21.54
2017-11-17T05:30:14.072Z,21.52
2017-11-17T05:31:26.753Z,21.61
2017-11-17T05:32:39.444Z,21.64
2017-11-17T05:33:52.453Z,21.64
2017-11-17T05:35:05.444Z,21.59
2017-11-17T05:36:17.977Z,21.64
2017-11-17T05:37:30.997Z,21.53
2017-11-17T05:38:43.537Z,21.56
2017-11-17T05:39:56.552Z,21.52
2017-11-17T05:41:09.099Z,21.47
2017-11-17T05:42:21.644Z,21.44
2017-11-17T05:43:33.725Z,21.47
2017-11-17T05:44:46.771Z,21.37
2017-11-17T05:45:58.855Z,21.34
2017-11-17T05:47:11.868Z,21.32
2017-11-17T05:48:24.870Z,21.4
2017-11-17T05:49:37.882Z,21.4
2017-11-17T05:50:50.860Z,21.27
2017-11-17T05:52:03.853Z,21.34
2017-11-17T05:53:16.663Z,21.25
2017-11-17T05:54:29.685Z,21.31
2017-11-17T05:55:42.714Z,21.28
2017-11-17T05:56:55.731Z,21.24
2017-11-17T05:58:07.789Z,21.24
2017-11-17T05:59:20.815Z,21.25
2017-11-17T06:00:33.349Z,21.24
2017-11-17T06:01:45.893Z,21.27
2017-11-17T06:02:59.124Z,21.27
2017-11-17T06:04:11.651Z,21.24
2017-11-17T06:05:24.621Z,21.28
2017-11-17T06:06:37.607Z,21.19
2017-11-17T06:07:50.605Z,21.27
2017-11-17T06:09:03.626Z,21.17
2017-11-17T06:10:16.600Z,21.17
2017-11-17T06:11:29.601Z,21.07
2017-11-17T06:12:41.657Z,21.13
2017-11-17T06:13:54.617Z,21.1
2017-11-17T06:15:07.667Z,21.12
2017-11-17T06:16:20.218Z,21.09
2017-11-17T06:17:33.224Z,21.14
2017-11-17T06:18:45.748Z,21.13
2017-11-17T06:19:58.275Z,21.12
2017-11-17T06:21:11.314Z,21.14
2017-11-17T06:22:24.344Z,21.13
2017-11-17T06:23:37.339Z,21.09
2017-11-17T06:24:50.311Z,21.22
2017-11-17T06:26:02.859Z,21.19
2017-11-17T06:27:15.827Z,21.34
2017-11-17T06:28:28.787Z,21.32
2017-11-17T06:29:41.722Z,21.28
2017-11-17T06:30:54.258Z,21.29
2017-11-17T06:32:07.247Z,21.28
2017-11-17T06:33:20.250Z,21.32
2017-11-17T06:34:33.223Z,21.29
2017-11-17T06:35:45.759Z,21.31
2017-11-17T06:36:58.848Z,21.31
2017-11-17T06:38:11.873Z,21.22
2017-11-17T06:39:24.897Z,21.32
2017-11-17T06:40:37.923Z,21.34
2017-11-17T06:41:50.953Z,21.32
2017-11-17T06:43:03.937Z,21.35
2017-11-17T06:44:16.055Z,21.27
2017-11-17T06:45:28.586Z,21.24
2017-11-17T06:46:41.606Z,21.31
2017-11-17T06:47:54.585Z,21.25
2017-11-17T06:49:07.120Z,21.25
2017-11-17T06:50:19.659Z,21.25
2017-11-17T06:51:32.208Z,21.27
2017-11-17T06:52:45.249Z,21.24
2017-11-17T06:53:58.318Z,21.24
2017-11-17T06:55:11.343Z,21.25
2017-11-17T06:56:24.568Z,21.28
2017-11-17T06:57:37.082Z,21.25
2017-11-17T06:58:50.112Z,21.24
2017-11-17T07:00:03.151Z,21.24
2017-11-17T07:01:16.176Z,21.14
2017-11-17T07:02:28.687Z,21.12
2017-11-17T07:03:41.247Z,21.24
2017-11-17T07:04:54.230Z,21.19
2017-11-17T07:06:06.761Z,21.22
2017-11-17T07:07:19.796Z,21.1
2017-11-17T07:08:32.352Z,21.21
2017-11-17T07:09:45.579Z,21.25
2017-11-17T07:10:58.105Z,21.28
2017-11-17T07:12:11.059Z,21.29
2017-11-17T07:13:24.066Z,21.27
2017-11-17T07:14:37.073Z,21.19
2017-11-17T07:15:50.103Z,21.25
2017-11-17T07:17:03.172Z,21.09
2017-11-17T07:18:16.220Z,21.04
2017-11-17T07:19:28.735Z,20.89
2017-11-17T07:20:41.746Z,20.8
2017-11-17T07:21:54.290Z,20.77
2017-11-17T07:23:07.305Z,20.74
2017-11-17T07:24:20.301Z,20.77
2017-11-17T07:25:32.867Z,20.72
2017-11-17T07:26:46.095Z,20.82
2017-11-17T07:27:59.088Z,20.82
2017-11-17T07:29:11.609Z,20.69
2017-11-17T07:30:24.586Z,20.61
2017-11-17T07:31:37.129Z,20.67
2017-11-17T07:32:49.667Z,20.58
2017-11-17T07:34:02.186Z,20.54
2017-11-17T07:35:14.745Z,20.58
2017-11-17T07:36:27.695Z,20.64
2017-11-17T07:37:40.723Z,20.66
2017-11-17T07:38:53.788Z,20.64
2017-11-17T07:40:06.787Z,20.67
2017-11-17T07:41:19.338Z,20.62
2017-11-17T07:42:32.377Z,20.67
2017-11-17T07:43:44.901Z,20.66
2017-11-17T07:44:57.855Z,20.62
2017-11-17T07:46:10.873Z,20.5
2017-11-17T07:47:23.677Z,20.39
2017-11-17T07:48:35.734Z,20.2
2017-11-17T07:49:48.742Z,20.02
2017-11-17T07:51:01.736Z,20.01
2017-11-17T07:52:14.257Z,20.02
2017-11-17T07:53:25.814Z,19.98
2017-11-17T07:54:38.415Z,19.86
2017-11-17T07:55:51.394Z,19.77
2017-11-17T07:57:04.407Z,19.46
2017-11-17T07:58:16.936Z,19.18
2017-11-17T07:59:29.229Z,18.9
2017-11-17T08:00:41.803Z,18.7
2017-11-17T08:01:54.855Z,18.62
2017-11-17T08:03:07.932Z,18.47
2017-11-17T08:04:20.502Z,18.47
2017-11-17T08:05:33.511Z,18.5
2017-11-17T08:06:46.524Z,18.52
2017-11-17T08:07:59.074Z,18.39
2017-11-17T08:09:11.657Z,18.36
2017-11-17T08:10:23.725Z,18.48
2017-11-17T08:11:36.749Z,18.39
2017-11-17T08:12:49.240Z,18.36
2017-11-17T08:14:02.230Z,18.45
2017-11-17T08:15:15.269Z,18.42
2017-11-17T08:16:28.259Z,18.44
2017-11-17T08:17:40.806Z,18.42
2017-11-17T08:18:53.801Z,18.36
2017-11-17T08:20:06.825Z,18.36
2017-11-17T08:21:19.813Z,18.32
2017-11-17T08:22:32.820Z,18.32
2017-11-17T08:23:45.393Z,18.32
2017-11-17T08:24:58.409Z,18.3
2017-11-17T08:26:10.922Z,18.27
2017-11-17T08:27:23.408Z,18.27
2017-11-17T08:28:36.395Z,18.27
2017-11-17T08:29:49.375Z,18.35
2017-11-17T08:31:02.415Z,18.42
2017-11-17T08:32:15.419Z,18.42
2017-11-17T08:33:27.997Z,18.33
2017-11-17T08:34:40.963Z,18.41
2017-11-17T08:35:53.518Z,18.41
2017-11-17T08:37:06.525Z,18.39
2017-11-17T08:38:19.120Z,18.54
2017-11-17T08:39:32.128Z,18.65
2017-11-17T08:40:44.654Z,18.52
2017-11-17T08:41:57.654Z,18.44
2017-11-17T08:43:10.679Z,18.51
2017-11-17T08:44:23.749Z,18.37
2017-11-17T08:45:36.754Z,18.42
2017-11-17T08:46:49.793Z,18.39
2017-11-17T08:48:02.789Z,18.3
2017-11-17T08:49:15.785Z,18.32
2017-11-17T08:50:28.994Z,18.21
2017-11-17T08:51:42.034Z,18.14
2017-11-17T08:52:55.083Z,18.23
2017-11-17T08:54:07.601Z,18.08
2017-11-17T08:55:20.119Z,17.97
2017-11-17T08:56:32.672Z,17.95
2017-11-17T08:57:45.687Z,17.87
2017-11-17T08:58:58.642Z,17.86
2017-11-17T09:00:11.614Z,17.87
2017-11-17T09:01:24.169Z,17.77
2017-11-17T09:02:36.722Z,17.82
2017-11-17T09:03:49.684Z,17.87
2017-11-17T09:05:02.211Z,17.74
2017-11-17T09:06:15.207Z,17.82
2017-11-17T09:07:28.219Z,17.81
2017-11-17T09:08:40.745Z,17.9
2017-11-17T09:09:53.257Z,17.82
2017-11-17T09:11:05.836Z,17.87
2017-11-17T09:12:18.854Z,17.86
2017-11-17T09:13:31.857Z,17.89
2017-11-17T09:14:44.443Z,17.82
2017-11-17T09:15:57.466Z,17.86
2017-11-17T09:17:10.440Z,17.95
2017-11-17T09:18:22.993Z,17.93
2017-11-17T09:19:36.035Z,17.99
2017-11-17T09:20:49.140Z,18.17
2017-11-17T09:22:02.162Z,18.35
2017-11-17T09:23:15.196Z,18.39
2017-11-17T09:24:28.198Z,18.25
2017-11-17T09:25:41.182Z,18.08
2017-11-17T09:26:53.217Z,18.17
2017-11-17T09:28:05.761Z,18.21
2017-11-17T09:29:18.758Z,18.42
2017-11-17T09:30:31.322Z,18.5
2017-11-17T09:31:44.380Z,18.55
2017-11-17T09:32:56.927Z,18.55
2017-11-17T09:34:08.996Z,18.69
2017-11-17T09:35:21.967Z,18.78
2017-11-17T09:36:34.531Z,18.87
2017-11-17T09:37:47.538Z,18.9
2017-11-17T09:39:00.067Z,18.92
2017-11-17T09:40:12.645Z,19.1
2017-11-17T09:41:25.422Z,19.16
2017-11-17T09:42:38.429Z,19.14
2017-11-17T09:43:51.457Z,19.21
2017-11-17T09:45:04.492Z,19.31
2017-11-17T09:46:16.996Z,19.32
2017-11-17T09:47:30.102Z,19.28
2017-11-17T09:48:43.141Z,19.39
2017-11-17T09:49:55.676Z,19.29
2017-11-17T09:51:08.742Z,19.19
2017-11-17T09:52:21.270Z,19.13
2017-11-17T09:53:34.261Z,18.95
2017-11-17T09:54:47.230Z,18.91
2017-11-17T09:55:59.772Z,18.88
2017-11-17T09:57:12.305Z,18.87
2017-11-17T09:58:24.850Z,18.82
2017-11-17T09:59:37.354Z,18.78
2017-11-17T10:00:50.378Z,18.78
2017-11-17T10:02:02.900Z,18.69
2017-11-17T10:03:15.897Z,18.65
2017-11-17T10:04:28.888Z,18.63
2017-11-17T10:05:41.429Z,18.63
2017-11-17T10:06:54.498Z,18.57
2017-11-17T10:08:07.472Z,18.57
2017-11-17T10:09:20.035Z,18.58
2017-11-17T10:10:32.558Z,18.6
2017-11-17T10:11:45.562Z,18.63
2017-11-17T10:12:58.603Z,18.73
2017-11-17T10:14:11.829Z,18.72
2017-11-17T10:15:24.844Z,18.82
2017-11-17T10:16:37.857Z,18.87
2017-11-17T10:17:50.392Z,19.02
2017-11-17T10:19:03.389Z,19.06
2017-11-17T10:20:15.947Z,19.07
2017-11-17T10:21:28.476Z,19.07
2017-11-17T10:22:41.134Z,19.1
2017-11-17T10:23:54.119Z,19.1
2017-11-17T10:25:07.120Z,19.21
2017-11-17T10:26:20.116Z,19.14
2017-11-17T10:27:33.103Z,19.21
2017-11-17T10:28:45.672Z,19.22
2017-11-17T10:29:57.812Z,19.33
2017-11-17T10:31:10.337Z,19.39
2017-11-17T10:32:23.332Z,19.46
2017-11-17T10:33:35.862Z,19.4
2017-11-17T10:34:48.868Z,19.41
2017-11-17T10:36:01.407Z,19.4
2017-11-17T10:37:13.963Z,19.48
2017-11-17T10:38:26.954Z,19.47
2017-11-17T10:39:39.973Z,19.56
2017-11-17T10:40:52.963Z,19.74
2017-11-17T10:42:05.044Z,19.76
2017-11-17T10:43:18.045Z,19.83
2017-11-17T10:44:31.038Z,20.05
2017-11-17T10:45:44.040Z,20.32
2017-11-17T10:46:57.037Z,20.47
2017-11-17T10:48:09.992Z,20.29
2017-11-17T10:49:23.063Z,20.08
2017-11-17T10:50:36.119Z,19.96
2017-11-17T10:51:49.324Z,19.86
2017-11-17T10:53:02.330Z,19.95
2017-11-17T10:54:15.370Z,20.03
2017-11-17T10:55:28.329Z,20.28
2017-11-17T10:56:41.306Z,20.5
2017-11-17T10:57:54.337Z,20.5
2017-11-17T10:59:07.365Z,20.52
2017-11-17T11:00:19.917Z,20.54
2017-11-17T11:01:32.912Z,20.55
2017-11-17T11:02:45.905Z,20.55
2017-11-17T11:03:58.916Z,20.67
2017-11-17T11:05:11.675Z,20.79
2017-11-17T11:06:24.194Z,20.88
2017-11-17T11:07:37.224Z,20.73
2017-11-17T11:08:50.265Z,20.5
2017-11-17T11:10:03.321Z,20.54
2017-11-17T11:11:16.348Z,20.52
2017-11-17T11:12:29.379Z,20.47
2017-11-17T11:13:41.945Z,20.43
2017-11-17T11:14:54.943Z,20.36
2017-11-17T11:16:07.995Z,20.28
2017-11-17T11:17:20.546Z,20.36
2017-11-17T11:18:33.087Z,20.35
2017-11-17T11:19:46.111Z,20.42
2017-11-17T11:20:59.142Z,20.39
2017-11-17T11:22:11.672Z,20.42
2017-11-17T11:23:24.697Z,20.5
2017-11-17T11:24:37.700Z,20.57
2017-11-17T11:25:49.995Z,20.72
2017-11-17T11:27:03.071Z,20.77
2017-11-17T11:28:16.052Z,20.85
2017-11-17T11:29:29.091Z,21.1
2017-11-17T11:30:41.617Z,21.13
2017-11-17T11:31:54.121Z,21.03
2017-11-17T11:33:07.138Z,20.99
2017-11-17T11:34:20.131Z,20.91
2017-11-17T11:35:33.160Z,20.76
2017-11-17T11:36:45.666Z,20.95
2017-11-17T11:37:58.635Z,21.13
2017-11-17T11:39:11.821Z,21.56
2017-11-17T11:40:24.795Z,21.84
2017-11-17T11:41:37.791Z,21.98
2017-11-17T11:42:49.430Z,21.59
2017-11-17T11:44:01.964Z,21.54
2017-11-17T11:45:14.486Z,21.74
2017-11-17T11:46:27.499Z,21.99
2017-11-17T11:47:40.518Z,22
2017-11-17T11:48:53.532Z,22.14
2017-11-17T11:50:06.503Z,22.28
2017-11-17T11:51:19.533Z,22.1
2017-11-17T11:52:32.545Z,22.07
2017-11-17T11:53:45.590Z,22.14
2017-11-17T11:54:58.616Z,22.25
2017-11-17T11:56:11.658Z,22.52
2017-11-17T11:57:24.698Z,22.57
2017-11-17T11:58:37.705Z,22.77
2017-11-17T11:59:50.235Z,23.4
2017-11-17T12:01:03.268Z,23.78
2017-11-17T12:02:15.898Z,23.53
2017-11-17T12:03:28.427Z,23.53
2017-11-17T12:04:41.428Z,23.13
2017-11-17T12:05:53.957Z,22.86
2017-11-17T12:07:06.948Z,22.97
2017-11-17T12:08:20.005Z,23.09
2017-11-17T12:09:32.560Z,23
2017-11-17T12:10:45.116Z,22.85
2017-11-17T12:11:57.696Z,23.07
2017-11-17T12:13:10.707Z,23.66
2017-11-17T12:14:23.282Z,24.16
2017-11-17T12:15:36.305Z,24.03
2017-11-17T12:16:48.841Z,24.13
2017-11-17T12:18:01.787Z,23.9
2017-11-17T12:19:14.805Z,24.05
2017-11-17T12:20:27.816Z,23.9
2017-11-17T12:21:40.353Z,23.9
2017-11-17T12:22:53.422Z,23.91
2017-11-17T12:24:06.515Z,23.73
2017-11-17T12:25:19.524Z,23.68
2017-11-17T12:26:32.543Z,23.73
2017-11-17T12:27:45.078Z,23.6
2017-11-17T12:28:58.143Z,23.63
2017-11-17T12:30:11.111Z,23.73
2017-11-17T12:31:23.156Z,23.83
2017-11-17T12:32:35.310Z,23.68
2017-11-17T12:33:48.292Z,23.55
2017-11-17T12:34:59.888Z,23.25
2017-11-17T12:36:12.959Z,23.23
2017-11-17T12:37:25.236Z,23.23
2017-11-17T12:38:38.233Z,23.38
2017-11-17T12:39:50.792Z,23.76
2017-11-17T12:41:03.932Z,24.06
2017-11-17T12:42:16.479Z,24.45
2017-11-17T12:43:29.540Z,24.55
2017-11-17T12:44:42.579Z,24.57
2017-11-17T12:45:57.109Z,24.61
2017-11-17T12:47:09.217Z,24.65
2017-11-17T12:48:22.263Z,24.62
2017-11-17T12:49:35.266Z,25.14
2017-11-17T12:50:48.266Z,25.36
2017-11-17T12:52:01.276Z,25.77
2017-11-17T12:53:14.544Z,26.33
2017-11-17T12:54:27.542Z,26.33
2017-11-17T12:55:40.546Z,26.12
2017-11-17T12:56:53.103Z,25.62
2017-11-17T12:58:06.160Z,25.18
2017-11-17T12:59:19.159Z,25.4
2017-11-17T13:00:32.144Z,25.82
2017-11-17T13:01:44.718Z,25.98
2017-11-17T13:02:57.714Z,25.69
2017-11-17T13:04:10.274Z,25.77
2017-11-17T13:05:23.270Z,25.94
2017-11-17T13:06:36.288Z,26.32
2017-11-17T13:07:49.304Z,26.47
2017-11-17T13:09:01.847Z,26.23
2017-11-17T13:10:14.879Z,26.69
2017-11-17T13:11:27.914Z,26.91
2017-11-17T13:12:40.963Z,27.43
2017-11-17T13:13:54.016Z,27.81
2017-11-17T13:15:06.117Z,27.85
2017-11-17T13:16:18.734Z,27.94
2017-11-17T13:17:31.738Z,27.54
2017-11-17T13:18:44.763Z,27.55
2017-11-17T13:19:57.312Z,27.4
2017-11-17T13:21:09.864Z,27.27
2017-11-17T13:22:23.126Z,27.14
2017-11-17T13:23:35.213Z,27.06
2017-11-17T13:24:47.783Z,27.5
2017-11-17T13:26:00.841Z,27.72
2017-11-17T13:27:13.853Z,28.67
2017-11-17T13:28:26.935Z,29.27
2017-11-17T13:29:39.922Z,28.58
2017-11-17T13:30:52.518Z,27.87
2017-11-17T13:32:05.650Z,27.79
2017-11-17T13:33:17.749Z,28.07
2017-11-17T13:34:30.766Z,28
2017-11-17T13:35:42.364Z,28.03
2017-11-17T13:36:54.896Z,28.33
2017-11-17T13:38:07.925Z,28.58
2017-11-17T13:39:20.046Z,28.04
2017-11-17T13:40:32.677Z,28.02
2017-11-17T13:41:45.697Z,28.27
2017-11-17T13:42:58.251Z,28.29
2017-11-17T13:44:10.781Z,28.24
2017-11-17T13:45:23.306Z,28.07
2017-11-17T13:46:35.846Z,27.94
2017-11-17T13:47:48.900Z,27.63
2017-11-17T13:49:01.470Z,27.7
2017-11-17T13:50:14.511Z,27.85
2017-11-17T13:51:27.538Z,28.17
2017-11-17T13:52:40.570Z,28.44
2017-11-17T13:53:53.117Z,28.33
2017-11-17T13:55:05.668Z,28.03
2017-11-17T13:56:18.230Z,27.46
2017-11-17T13:57:31.223Z,27.12
2017-11-17T13:58:44.212Z,26.72
2017-11-17T13:59:57.251Z,26.52
2017-11-17T14:01:10.303Z,26.51
2017-11-17T14:02:22.850Z,26.75
2017-11-17T14:03:35.878Z,26.85
2017-11-17T14:04:48.871Z,26.69
2017-11-17T14:06:01.456Z,26.63
2017-11-17T14:07:14.536Z,26.33
2017-11-17T14:08:27.146Z,26.23
2017-11-17T14:09:39.698Z,26.25
2017-11-17T14:10:52.894Z,26.4
2017-11-17T14:12:05.439Z,26.5
2017-11-17T14:13:18.454Z,26.72
2017-11-17T14:14:30.142Z,26.62
2017-11-17T14:15:42.694Z,26.36
2017-11-17T14:16:55.713Z,26.37
2017-11-17T14:18:08.722Z,26.8
2017-11-17T14:19:21.773Z,26.7
2017-11-17T14:20:34.301Z,26.73
2017-11-17T14:21:47.311Z,26.88
2017-11-17T14:23:00.369Z,26.73
2017-11-17T14:24:13.319Z,26.57
2017-11-17T14:25:25.904Z,26.45
2017-11-17T14:26:38.407Z,26.39
2017-11-17T14:27:50.931Z,26.77
2017-11-17T14:29:03.962Z,26.6
2017-11-17T14:30:16.986Z,26.28
2017-11-17T14:31:29.528Z,26.32
2017-11-17T14:32:42.116Z,26.21
2017-11-17T14:33:54.686Z,26.2
2017-11-17T14:35:07.223Z,26.39
2017-11-17T14:36:20.206Z,26.69
2017-11-17T14:37:32.750Z,26.69
2017-11-17T14:38:45.756Z,26.28
2017-11-17T14:39:58.988Z,26.12
2017-11-17T14:41:12.021Z,26.05
2017-11-17T14:42:25.037Z,26.2
2017-11-17T14:43:38.043Z,26.18
2017-11-17T14:44:51.093Z,26.06
2017-11-17T14:46:04.106Z,26.01
2017-11-17T14:47:16.697Z,26.28
2017-11-17T14:48:29.732Z,26.1
2017-11-17T14:49:42.735Z,26.18
2017-11-17T14:50:55.754Z,26.51
2017-11-17T14:52:08.801Z,26.44
2017-11-17T14:53:21.342Z,26.25
2017-11-17T14:54:34.365Z,26.17
2017-11-17T14:55:46.860Z,26.17
2017-11-17T14:56:59.909Z,26.18
2017-11-17T14:58:11.959Z,26.2
2017-11-17T14:59:24.977Z,26.17
2017-11-17T15:00:37.546Z,26.17
2017-11-17T15:01:50.572Z,26.6
2017-11-17T15:03:02.635Z,26.63
2017-11-17T15:04:15.850Z,26.29
2017-11-17T15:05:28.855Z,26.2
2017-11-17T15:06:41.835Z,26.26
2017-11-17T15:07:54.847Z,26.3
2017-11-17T15:09:08.065Z,26.2
2017-11-17T15:10:21.075Z,26.29
2017-11-17T15:11:34.105Z,26.51
2017-11-17T15:12:47.136Z,26.44
2017-11-17T15:13:59.449Z,26.4
2017-11-17T15:15:12.410Z,26.37
2017-11-17T15:16:25.432Z,26.45
2017-11-17T15:17:38.527Z,26.44
2017-11-17T15:18:51.553Z,26.43
2017-11-17T15:20:03.641Z,26.4
2017-11-17T15:21:16.892Z,26.54
2017-11-17T15:22:29.892Z,26.7
2017-11-17T15:23:42.936Z,26.66
2017-11-17T15:24:55.284Z,26.54
2017-11-17T15:26:07.383Z,26.6
2017-11-17T15:27:20.003Z,26.4
2017-11-17T15:28:32.520Z,26.58
2017-11-17T15:29:45.690Z,26.8
2017-11-17T15:30:58.258Z,26.8
2017-11-17T15:32:10.802Z,26.82
2017-11-17T15:33:23.360Z,26.8
2017-11-17T15:34:35.925Z,26.77
2017-11-17T15:35:47.994Z,26.88
2017-11-17T15:37:01.020Z,26.95
2017-11-17T15:38:13.056Z,27.24
2017-11-17T15:39:25.598Z,27.24
2017-11-17T15:40:38.609Z,27.06
2017-11-17T15:41:51.620Z,27.12
2017-11-17T15:43:04.632Z,27.03